sensor_id;sensor_type;location;lat;lon;timestamp;P1;durP1;ratioP1;P2;durP2;ratioP2
65202;SDS011;51788;45.124;38.966;2023-09-12T00:01:42;13.23;;;9.15;;
65202;SDS011;51788;45.124;38.966;2023-09-12T00:04:08;10.73;;;9.20;;
65202;SDS011;51788;45.124;38.966;2023-09-12T00:06:36;24.25;;;9.38;;
65202;SDS011;51788;45.124;38.966;2023-09-12T00:09:03;27.55;;;10.50;;
65202;SDS011;51788;45.124;38.966;2023-09-12T00:11:32;19.60;;;10.40;;
65202;SDS011;51788;45.124;38.966;2023-09-12T00:13:58;22.48;;;9.75;;
65202;SDS011;51788;45.124;38.966;2023-09-12T00:16:24;19.83;;;10.32;;
65202;SDS011;51788;45.124;38.966;2023-09-12T00:18:50;15.63;;;9.90;;
65202;SDS011;51788;45.124;38.966;2023-09-12T00:21:16;18.48;;;10.80;;
65202;SDS011;51788;45.124;38.966;2023-09-12T00:23:42;12.07;;;9.60;;
65202;SDS011;51788;45.124;38.966;2023-09-12T00:26:08;17.80;;;10.02;;
65202;SDS011;51788;45.124;38.966;2023-09-12T00:28:34;14.30;;;9.55;;
65202;SDS011;51788;45.124;38.966;2023-09-12T00:31:00;18.98;;;10.25;;
65202;SDS011;51788;45.124;38.966;2023-09-12T00:33:26;20.90;;;9.95;;
65202;SDS011;51788;45.124;38.966;2023-09-12T00:35:52;16.05;;;10.18;;
65202;SDS011;51788;45.124;38.966;2023-09-12T00:38:18;14.30;;;10.10;;
65202;SDS011;51788;45.124;38.966;2023-09-12T00:40:44;16.15;;;10.15;;
65202;SDS011;51788;45.124;38.966;2023-09-12T00:43:10;13.15;;;9.75;;
65202;SDS011;51788;45.124;38.966;2023-09-12T00:45:36;19.35;;;9.90;;
65202;SDS011;51788;45.124;38.966;2023-09-12T00:48:02;13.77;;;9.27;;
65202;SDS011;51788;45.124;38.966;2023-09-12T00:50:30;12.90;;;9.75;;
65202;SDS011;51788;45.124;38.966;2023-09-12T00:52:57;11.90;;;9.38;;
65202;SDS011;51788;45.124;38.966;2023-09-12T00:55:24;10.20;;;9.18;;
65202;SDS011;51788;45.124;38.966;2023-09-12T00:57:51;17.13;;;9.88;;
65202;SDS011;51788;45.124;38.966;2023-09-12T01:00:18;14.20;;;9.48;;
65202;SDS011;51788;45.124;38.966;2023-09-12T01:02:45;11.10;;;9.18;;
65202;SDS011;51788;45.124;38.966;2023-09-12T01:05:13;11.38;;;9.45;;
65202;SDS011;51788;45.124;38.966;2023-09-12T01:07:40;16.60;;;10.32;;
65202;SDS011;51788;45.124;38.966;2023-09-12T01:10:08;10.48;;;9.40;;
65202;SDS011;51788;45.124;38.966;2023-09-12T01:12:35;17.52;;;10.45;;
65202;SDS011;51788;45.124;38.966;2023-09-12T01:15:01;12.18;;;9.23;;
65202;SDS011;51788;45.124;38.966;2023-09-12T01:17:31;16.15;;;9.80;;
65202;SDS011;51788;45.124;38.966;2023-09-12T01:19:57;16.35;;;9.75;;
65202;SDS011;51788;45.124;38.966;2023-09-12T01:22:27;21.50;;;9.00;;
65202;SDS011;51788;45.124;38.966;2023-09-12T01:28:02;16.30;;;9.98;;
65202;SDS011;51788;45.124;38.966;2023-09-12T01:30:30;13.98;;;9.52;;
65202;SDS011;51788;45.124;38.966;2023-09-12T01:32:58;18.10;;;10.13;;
65202;SDS011;51788;45.124;38.966;2023-09-12T01:35:25;18.35;;;9.50;;
65202;SDS011;51788;45.124;38.966;2023-09-12T01:37:51;16.58;;;9.55;;
65202;SDS011;51788;45.124;38.966;2023-09-12T01:40:17;20.17;;;9.70;;
65202;SDS011;51788;45.124;38.966;2023-09-12T01:42:45;17.75;;;9.77;;
65202;SDS011;51788;45.124;38.966;2023-09-12T01:45:15;18.80;;;10.27;;
65202;SDS011;51788;45.124;38.966;2023-09-12T01:47:43;11.45;;;10.25;;
65202;SDS011;51788;45.124;38.966;2023-09-12T01:50:12;19.88;;;10.52;;
65202;SDS011;51788;45.124;38.966;2023-09-12T01:52:39;20.00;;;9.73;;
65202;SDS011;51788;45.124;38.966;2023-09-12T01:55:06;13.43;;;9.63;;
65202;SDS011;51788;45.124;38.966;2023-09-12T01:57:35;15.90;;;9.30;;
65202;SDS011;51788;45.124;38.966;2023-09-12T02:00:02;13.15;;;9.00;;
65202;SDS011;51788;45.124;38.966;2023-09-12T02:02:30;27.30;;;10.13;;
65202;SDS011;51788;45.124;38.966;2023-09-12T02:07:32;12.60;;;8.93;;
65202;SDS011;51788;45.124;38.966;2023-09-12T02:10:01;19.63;;;10.30;;
65202;SDS011;51788;45.124;38.966;2023-09-12T02:12:27;17.73;;;10.55;;
65202;SDS011;51788;45.124;38.966;2023-09-12T02:14:52;10.98;;;9.88;;
65202;SDS011;51788;45.124;38.966;2023-09-12T02:17:18;17.77;;;9.75;;
65202;SDS011;51788;45.124;38.966;2023-09-12T02:19:46;20.15;;;9.25;;
65202;SDS011;51788;45.124;38.966;2023-09-12T02:22:14;15.90;;;9.48;;
65202;SDS011;51788;45.124;38.966;2023-09-12T02:24:40;15.13;;;9.85;;
65202;SDS011;51788;45.124;38.966;2023-09-12T02:27:06;17.05;;;10.27;;
65202;SDS011;51788;45.124;38.966;2023-09-12T02:29:31;16.88;;;10.48;;
65202;SDS011;51788;45.124;38.966;2023-09-12T02:32:00;14.75;;;10.77;;
65202;SDS011;51788;45.124;38.966;2023-09-12T02:34:26;20.17;;;10.50;;
65202;SDS011;51788;45.124;38.966;2023-09-12T02:36:52;16.55;;;11.40;;
65202;SDS011;51788;45.124;38.966;2023-09-12T02:39:18;11.57;;;9.93;;
65202;SDS011;51788;45.124;38.966;2023-09-12T02:41:44;13.95;;;10.00;;
65202;SDS011;51788;45.124;38.966;2023-09-12T02:44:10;14.43;;;10.20;;
65202;SDS011;51788;45.124;38.966;2023-09-12T02:46:36;20.00;;;10.75;;
65202;SDS011;51788;45.124;38.966;2023-09-12T02:49:03;11.40;;;10.20;;
65202;SDS011;51788;45.124;38.966;2023-09-12T02:51:29;12.68;;;10.27;;
65202;SDS011;51788;45.124;38.966;2023-09-12T02:53:54;14.45;;;11.02;;
65202;SDS011;51788;45.124;38.966;2023-09-12T02:56:20;23.70;;;11.68;;
65202;SDS011;51788;45.124;38.966;2023-09-12T02:58:47;14.60;;;10.20;;
65202;SDS011;51788;45.124;38.966;2023-09-12T03:01:19;20.85;;;10.57;;
65202;SDS011;51788;45.124;38.966;2023-09-12T03:03:47;21.70;;;9.93;;
65202;SDS011;51788;45.124;38.966;2023-09-12T03:06:16;18.85;;;9.90;;
65202;SDS011;51788;45.124;38.966;2023-09-12T03:08:44;15.45;;;10.63;;
65202;SDS011;51788;45.124;38.966;2023-09-12T03:11:10;13.77;;;10.23;;
65202;SDS011;51788;45.124;38.966;2023-09-12T03:13:36;14.48;;;9.68;;
65202;SDS011;51788;45.124;38.966;2023-09-12T03:16:03;13.10;;;9.75;;
65202;SDS011;51788;45.124;38.966;2023-09-12T03:18:29;22.00;;;11.65;;
65202;SDS011;51788;45.124;38.966;2023-09-12T03:20:55;23.13;;;10.93;;
65202;SDS011;51788;45.124;38.966;2023-09-12T03:23:21;15.18;;;9.88;;
65202;SDS011;51788;45.124;38.966;2023-09-12T03:25:47;21.05;;;11.13;;
65202;SDS011;51788;45.124;38.966;2023-09-12T03:28:14;19.95;;;10.07;;
65202;SDS011;51788;45.124;38.966;2023-09-12T03:30:40;21.13;;;10.45;;
65202;SDS011;51788;45.124;38.966;2023-09-12T03:33:07;19.60;;;11.02;;
65202;SDS011;51788;45.124;38.966;2023-09-12T03:35:34;24.73;;;10.45;;
65202;SDS011;51788;45.124;38.966;2023-09-12T03:38:00;18.48;;;10.50;;
65202;SDS011;51788;45.124;38.966;2023-09-12T03:40:30;31.42;;;12.02;;
65202;SDS011;51788;45.124;38.966;2023-09-12T03:42:56;25.27;;;11.60;;
65202;SDS011;51788;45.124;38.966;2023-09-12T03:45:23;23.73;;;11.40;;
65202;SDS011;51788;45.124;38.966;2023-09-12T03:47:49;17.10;;;11.75;;
65202;SDS011;51788;45.124;38.966;2023-09-12T03:50:16;26.08;;;12.18;;
65202;SDS011;51788;45.124;38.966;2023-09-12T03:52:42;19.52;;;11.82;;
65202;SDS011;51788;45.124;38.966;2023-09-12T03:55:08;23.35;;;11.85;;
65202;SDS011;51788;45.124;38.966;2023-09-12T03:57:35;26.50;;;11.98;;
65202;SDS011;51788;45.124;38.966;2023-09-12T04:00:01;21.80;;;12.02;;
65202;SDS011;51788;45.124;38.966;2023-09-12T04:02:39;25.70;;;11.93;;
65202;SDS011;51788;45.124;38.966;2023-09-12T04:05:05;18.80;;;11.02;;
65202;SDS011;51788;45.124;38.966;2023-09-12T04:07:31;26.75;;;12.88;;
65202;SDS011;51788;45.124;38.966;2023-09-12T04:09:57;31.83;;;12.98;;
65202;SDS011;51788;45.124;38.966;2023-09-12T04:12:23;27.98;;;12.15;;
65202;SDS011;51788;45.124;38.966;2023-09-12T04:14:49;21.58;;;12.43;;
65202;SDS011;51788;45.124;38.966;2023-09-12T04:17:16;19.42;;;12.38;;
65202;SDS011;51788;45.124;38.966;2023-09-12T04:19:42;28.05;;;12.00;;
65202;SDS011;51788;45.124;38.966;2023-09-12T04:22:08;36.50;;;13.45;;
65202;SDS011;51788;45.124;38.966;2023-09-12T04:24:34;33.25;;;13.02;;
65202;SDS011;51788;45.124;38.966;2023-09-12T04:27:00;47.20;;;13.27;;
65202;SDS011;51788;45.124;38.966;2023-09-12T04:29:26;40.75;;;12.57;;
65202;SDS011;51788;45.124;38.966;2023-09-12T04:31:53;34.03;;;13.02;;
65202;SDS011;51788;45.124;38.966;2023-09-12T04:34:27;37.70;;;14.00;;
65202;SDS011;51788;45.124;38.966;2023-09-12T04:36:53;21.33;;;11.75;;
65202;SDS011;51788;45.124;38.966;2023-09-12T04:39:20;26.23;;;12.45;;
65202;SDS011;51788;45.124;38.966;2023-09-12T04:41:46;25.08;;;12.48;;
65202;SDS011;51788;45.124;38.966;2023-09-12T04:44:12;30.90;;;12.23;;
65202;SDS011;51788;45.124;38.966;2023-09-12T04:46:38;19.38;;;12.55;;
65202;SDS011;51788;45.124;38.966;2023-09-12T04:49:04;39.75;;;13.55;;
65202;SDS011;51788;45.124;38.966;2023-09-12T04:51:30;38.08;;;12.98;;
65202;SDS011;51788;45.124;38.966;2023-09-12T04:53:56;22.92;;;12.60;;
65202;SDS011;51788;45.124;38.966;2023-09-12T04:56:22;43.35;;;13.98;;
65202;SDS011;51788;45.124;38.966;2023-09-12T04:58:51;29.25;;;13.13;;
65202;SDS011;51788;45.124;38.966;2023-09-12T05:01:17;29.98;;;13.57;;
65202;SDS011;51788;45.124;38.966;2023-09-12T05:03:44;40.85;;;14.27;;
65202;SDS011;51788;45.124;38.966;2023-09-12T05:06:10;63.88;;;17.00;;
65202;SDS011;51788;45.124;38.966;2023-09-12T05:08:37;31.77;;;15.10;;
65202;SDS011;51788;45.124;38.966;2023-09-12T05:11:03;38.67;;;14.23;;
65202;SDS011;51788;45.124;38.966;2023-09-12T05:13:29;37.40;;;12.85;;
65202;SDS011;51788;45.124;38.966;2023-09-12T05:15:55;32.25;;;13.68;;
65202;SDS011;51788;45.124;38.966;2023-09-12T05:18:22;28.55;;;13.77;;
65202;SDS011;51788;45.124;38.966;2023-09-12T05:20:49;18.65;;;12.40;;
65202;SDS011;51788;45.124;38.966;2023-09-12T05:23:15;19.95;;;12.60;;
65202;SDS011;51788;45.124;38.966;2023-09-12T05:25:41;24.30;;;11.13;;
65202;SDS011;51788;45.124;38.966;2023-09-12T05:28:07;26.25;;;11.25;;
65202;SDS011;51788;45.124;38.966;2023-09-12T05:30:33;29.13;;;10.75;;
65202;SDS011;51788;45.124;38.966;2023-09-12T05:33:00;26.25;;;10.15;;
65202;SDS011;51788;45.124;38.966;2023-09-12T05:35:26;22.70;;;10.52;;
65202;SDS011;51788;45.124;38.966;2023-09-12T05:37:52;20.98;;;9.13;;
65202;SDS011;51788;45.124;38.966;2023-09-12T05:40:20;27.90;;;10.60;;
65202;SDS011;51788;45.124;38.966;2023-09-12T05:42:46;24.58;;;11.73;;
65202;SDS011;51788;45.124;38.966;2023-09-12T05:45:12;16.80;;;9.32;;
65202;SDS011;51788;45.124;38.966;2023-09-12T05:47:38;20.00;;;9.90;;
65202;SDS011;51788;45.124;38.966;2023-09-12T05:50:05;16.30;;;10.55;;
65202;SDS011;51788;45.124;38.966;2023-09-12T05:52:33;13.63;;;9.15;;
65202;SDS011;51788;45.124;38.966;2023-09-12T05:55:00;19.40;;;9.27;;
65202;SDS011;51788;45.124;38.966;2023-09-12T05:57:26;22.55;;;9.23;;
65202;SDS011;51788;45.124;38.966;2023-09-12T05:59:52;12.80;;;8.43;;
65202;SDS011;51788;45.124;38.966;2023-09-12T06:02:18;19.63;;;9.13;;
65202;SDS011;51788;45.124;38.966;2023-09-12T06:04:44;31.85;;;9.73;;
65202;SDS011;51788;45.124;38.966;2023-09-12T06:07:10;18.38;;;8.90;;
65202;SDS011;51788;45.124;38.966;2023-09-12T06:09:36;23.70;;;8.80;;
65202;SDS011;51788;45.124;38.966;2023-09-12T06:12:03;16.35;;;8.10;;
65202;SDS011;51788;45.124;38.966;2023-09-12T06:14:29;11.93;;;7.97;;
65202;SDS011;51788;45.124;38.966;2023-09-12T06:16:55;24.73;;;9.82;;
65202;SDS011;51788;45.124;38.966;2023-09-12T06:19:21;15.73;;;8.32;;
65202;SDS011;51788;45.124;38.966;2023-09-12T06:21:47;15.98;;;8.98;;
65202;SDS011;51788;45.124;38.966;2023-09-12T06:24:15;26.67;;;8.93;;
65202;SDS011;51788;45.124;38.966;2023-09-12T06:26:42;17.58;;;7.97;;
65202;SDS011;51788;45.124;38.966;2023-09-12T06:29:08;33.08;;;8.48;;
65202;SDS011;51788;45.124;38.966;2023-09-12T06:31:34;25.83;;;9.15;;
65202;SDS011;51788;45.124;38.966;2023-09-12T06:34:01;26.05;;;8.18;;
65202;SDS011;51788;45.124;38.966;2023-09-12T06:36:28;14.30;;;9.20;;
65202;SDS011;51788;45.124;38.966;2023-09-12T06:38:57;20.40;;;8.20;;
65202;SDS011;51788;45.124;38.966;2023-09-12T06:41:23;18.58;;;7.57;;
65202;SDS011;51788;45.124;38.966;2023-09-12T06:43:50;25.10;;;9.27;;
65202;SDS011;51788;45.124;38.966;2023-09-12T06:46:16;12.75;;;8.18;;
65202;SDS011;51788;45.124;38.966;2023-09-12T06:48:45;17.42;;;8.38;;
65202;SDS011;51788;45.124;38.966;2023-09-12T06:51:11;24.35;;;7.85;;
65202;SDS011;51788;45.124;38.966;2023-09-12T06:53:38;20.08;;;8.52;;
65202;SDS011;51788;45.124;38.966;2023-09-12T06:56:07;24.55;;;8.40;;
65202;SDS011;51788;45.124;38.966;2023-09-12T06:58:33;12.05;;;7.88;;
65202;SDS011;51788;45.124;38.966;2023-09-12T07:01:03;8.57;;;7.68;;
65202;SDS011;51788;45.124;38.966;2023-09-12T07:03:32;17.50;;;8.25;;
65202;SDS011;51788;45.124;38.966;2023-09-12T07:05:59;11.43;;;7.65;;
65202;SDS011;51788;45.124;38.966;2023-09-12T07:08:25;19.67;;;7.80;;
65202;SDS011;51788;45.124;38.966;2023-09-12T07:10:51;8.75;;;7.95;;
65202;SDS011;51788;45.124;38.966;2023-09-12T07:13:21;18.75;;;9.35;;
65202;SDS011;51788;45.124;38.966;2023-09-12T07:15:47;12.90;;;8.90;;
65202;SDS011;51788;45.124;38.966;2023-09-12T07:18:13;13.15;;;7.88;;
65202;SDS011;51788;45.124;38.966;2023-09-12T07:20:40;10.93;;;7.78;;
65202;SDS011;51788;45.124;38.966;2023-09-12T07:23:06;17.35;;;8.55;;
65202;SDS011;51788;45.124;38.966;2023-09-12T07:25:39;14.27;;;9.40;;
65202;SDS011;51788;45.124;38.966;2023-09-12T07:28:06;19.30;;;8.73;;
65202;SDS011;51788;45.124;38.966;2023-09-12T07:30:33;12.30;;;8.90;;
65202;SDS011;51788;45.124;38.966;2023-09-12T07:33:00;12.93;;;9.27;;
65202;SDS011;51788;45.124;38.966;2023-09-12T07:35:25;19.60;;;8.80;;
65202;SDS011;51788;45.124;38.966;2023-09-12T07:37:51;15.10;;;8.38;;
65202;SDS011;51788;45.124;38.966;2023-09-12T07:40:17;13.40;;;8.82;;
65202;SDS011;51788;45.124;38.966;2023-09-12T07:42:43;13.57;;;8.20;;
65202;SDS011;51788;45.124;38.966;2023-09-12T07:45:09;7.68;;;6.97;;
65202;SDS011;51788;45.124;38.966;2023-09-12T07:47:36;13.57;;;7.72;;
65202;SDS011;51788;45.124;38.966;2023-09-12T07:50:02;9.07;;;6.80;;
65202;SDS011;51788;45.124;38.966;2023-09-12T07:52:29;9.45;;;6.80;;
65202;SDS011;51788;45.124;38.966;2023-09-12T07:54:59;16.80;;;8.30;;
65202;SDS011;51788;45.124;38.966;2023-09-12T07:57:26;10.32;;;7.35;;
65202;SDS011;51788;45.124;38.966;2023-09-12T07:59:53;12.32;;;7.05;;
65202;SDS011;51788;45.124;38.966;2023-09-12T08:02:18;8.98;;;7.45;;
65202;SDS011;51788;45.124;38.966;2023-09-12T08:04:45;22.10;;;7.95;;
65202;SDS011;51788;45.124;38.966;2023-09-12T08:07:10;15.32;;;7.15;;
65202;SDS011;51788;45.124;38.966;2023-09-12T08:09:53;11.70;;;6.57;;
65202;SDS011;51788;45.124;38.966;2023-09-12T08:12:22;24.45;;;6.97;;
65202;SDS011;51788;45.124;38.966;2023-09-12T08:14:49;7.70;;;6.88;;
65202;SDS011;51788;45.124;38.966;2023-09-12T08:17:15;8.00;;;7.20;;
65202;SDS011;51788;45.124;38.966;2023-09-12T08:19:41;9.88;;;7.47;;
65202;SDS011;51788;45.124;38.966;2023-09-12T08:22:08;12.63;;;7.13;;
65202;SDS011;51788;45.124;38.966;2023-09-12T08:24:35;9.77;;;6.60;;
65202;SDS011;51788;45.124;38.966;2023-09-12T08:27:01;15.63;;;6.75;;
65202;SDS011;51788;45.124;38.966;2023-09-12T08:29:28;10.73;;;6.22;;
65202;SDS011;51788;45.124;38.966;2023-09-12T08:31:54;9.27;;;6.90;;
65202;SDS011;51788;45.124;38.966;2023-09-12T08:34:21;9.50;;;7.05;;
65202;SDS011;51788;45.124;38.966;2023-09-12T08:36:47;7.20;;;6.47;;
65202;SDS011;51788;45.124;38.966;2023-09-12T08:39:17;9.68;;;6.88;;
65202;SDS011;51788;45.124;38.966;2023-09-12T08:41:49;12.95;;;6.82;;
65202;SDS011;51788;45.124;38.966;2023-09-12T08:44:15;7.47;;;6.70;;
65202;SDS011;51788;45.124;38.966;2023-09-12T08:46:42;9.13;;;6.47;;
65202;SDS011;51788;45.124;38.966;2023-09-12T08:49:08;7.82;;;6.55;;
65202;SDS011;51788;45.124;38.966;2023-09-12T08:51:41;8.38;;;6.95;;
65202;SDS011;51788;45.124;38.966;2023-09-12T08:54:07;7.50;;;6.90;;
65202;SDS011;51788;45.124;38.966;2023-09-12T08:56:35;7.43;;;6.65;;
65202;SDS011;51788;45.124;38.966;2023-09-12T08:59:04;9.23;;;6.45;;
65202;SDS011;51788;45.124;38.966;2023-09-12T09:01:31;12.73;;;6.15;;
65202;SDS011;51788;45.124;38.966;2023-09-12T09:03:59;11.55;;;6.15;;
65202;SDS011;51788;45.124;38.966;2023-09-12T09:06:28;7.93;;;6.70;;
65202;SDS011;51788;45.124;38.966;2023-09-12T09:08:57;6.50;;;5.93;;
65202;SDS011;51788;45.124;38.966;2023-09-12T09:11:25;10.40;;;6.50;;
65202;SDS011;51788;45.124;38.966;2023-09-12T09:13:53;8.00;;;6.40;;
65202;SDS011;51788;45.124;38.966;2023-09-12T09:16:20;6.35;;;5.25;;
65202;SDS011;51788;45.124;38.966;2023-09-12T09:21:20;8.68;;;5.90;;
65202;SDS011;51788;45.124;38.966;2023-09-12T09:23:51;6.67;;;5.77;;
65202;SDS011;51788;45.124;38.966;2023-09-12T09:26:20;10.57;;;5.32;;
65202;SDS011;51788;45.124;38.966;2023-09-12T09:31:33;10.88;;;5.78;;
65202;SDS011;51788;45.124;38.966;2023-09-12T09:34:00;7.57;;;6.05;;
65202;SDS011;51788;45.124;38.966;2023-09-12T09:36:31;7.45;;;6.15;;
65202;SDS011;51788;45.124;38.966;2023-09-12T09:38:58;6.43;;;5.82;;
65202;SDS011;51788;45.124;38.966;2023-09-12T09:41:25;5.43;;;4.93;;
65202;SDS011;51788;45.124;38.966;2023-09-12T09:43:52;8.52;;;4.78;;
65202;SDS011;51788;45.124;38.966;2023-09-12T09:46:18;8.85;;;4.72;;
65202;SDS011;51788;45.124;38.966;2023-09-12T09:48:53;8.57;;;5.82;;
65202;SDS011;51788;45.124;38.966;2023-09-12T09:51:19;6.35;;;5.80;;
65202;SDS011;51788;45.124;38.966;2023-09-12T09:53:45;7.18;;;5.55;;
65202;SDS011;51788;45.124;38.966;2023-09-12T09:56:13;6.72;;;5.53;;
65202;SDS011;51788;45.124;38.966;2023-09-12T10:01:20;5.97;;;5.07;;
65202;SDS011;51788;45.124;38.966;2023-09-12T10:03:57;7.18;;;5.68;;
65202;SDS011;51788;45.124;38.966;2023-09-12T10:06:25;4.97;;;4.57;;
65202;SDS011;51788;45.124;38.966;2023-09-12T10:08:53;6.25;;;5.65;;
65202;SDS011;51788;45.124;38.966;2023-09-12T10:11:23;10.25;;;5.05;;
65202;SDS011;51788;45.124;38.966;2023-09-12T10:13:53;6.88;;;6.15;;
65202;SDS011;51788;45.124;38.966;2023-09-12T10:16:24;9.60;;;5.45;;
65202;SDS011;51788;45.124;38.966;2023-09-12T10:18:57;6.10;;;5.60;;
65202;SDS011;51788;45.124;38.966;2023-09-12T10:21:36;10.82;;;3.80;;
65202;SDS011;51788;45.124;38.966;2023-09-12T10:24:06;4.22;;;3.70;;
65202;SDS011;51788;45.124;38.966;2023-09-12T10:26:33;9.70;;;4.75;;
65202;SDS011;51788;45.124;38.966;2023-09-12T10:29:00;7.32;;;4.50;;
65202;SDS011;51788;45.124;38.966;2023-09-12T10:31:28;15.57;;;4.72;;
65202;SDS011;51788;45.124;38.966;2023-09-12T10:33:54;7.60;;;5.88;;
65202;SDS011;51788;45.124;38.966;2023-09-12T10:36:22;4.53;;;4.10;;
65202;SDS011;51788;45.124;38.966;2023-09-12T10:38:52;12.52;;;4.80;;
65202;SDS011;51788;45.124;38.966;2023-09-12T10:41:18;16.85;;;9.52;;
65202;SDS011;51788;45.124;38.966;2023-09-12T10:43:46;5.82;;;4.70;;
65202;SDS011;51788;45.124;38.966;2023-09-12T10:46:16;4.15;;;3.85;;
65202;SDS011;51788;45.124;38.966;2023-09-12T10:48:42;4.90;;;4.50;;
65202;SDS011;51788;45.124;38.966;2023-09-12T10:51:09;9.95;;;5.90;;
65202;SDS011;51788;45.124;38.966;2023-09-12T10:53:37;5.82;;;5.25;;
65202;SDS011;51788;45.124;38.966;2023-09-12T11:01:43;9.30;;;4.97;;
65202;SDS011;51788;45.124;38.966;2023-09-12T11:06:52;5.50;;;4.43;;
65202;SDS011;51788;45.124;38.966;2023-09-12T11:09:25;11.85;;;5.47;;
65202;SDS011;51788;45.124;38.966;2023-09-12T11:14:22;5.03;;;4.65;;
65202;SDS011;51788;45.124;38.966;2023-09-12T11:19:46;5.15;;;4.32;;
65202;SDS011;51788;45.124;38.966;2023-09-12T11:22:24;4.55;;;4.20;;
65202;SDS011;51788;45.124;38.966;2023-09-12T11:24:52;4.72;;;4.20;;
65202;SDS011;51788;45.124;38.966;2023-09-12T11:27:20;5.70;;;4.72;;
65202;SDS011;51788;45.124;38.966;2023-09-12T11:29:47;6.43;;;4.30;;
65202;SDS011;51788;45.124;38.966;2023-09-12T11:32:29;5.38;;;3.83;;
65202;SDS011;51788;45.124;38.966;2023-09-12T11:34:57;8.32;;;4.68;;
65202;SDS011;51788;45.124;38.966;2023-09-12T11:37:25;3.92;;;3.63;;
65202;SDS011;51788;45.124;38.966;2023-09-12T11:39:52;10.07;;;4.90;;
65202;SDS011;51788;45.124;38.966;2023-09-12T11:42:19;6.50;;;4.22;;
65202;SDS011;51788;45.124;38.966;2023-09-12T11:44:51;4.97;;;4.57;;
65202;SDS011;51788;45.124;38.966;2023-09-12T11:47:17;7.20;;;4.68;;
65202;SDS011;51788;45.124;38.966;2023-09-12T11:49:44;8.23;;;4.50;;
65202;SDS011;51788;45.124;38.966;2023-09-12T11:52:10;4.72;;;3.67;;
65202;SDS011;51788;45.124;38.966;2023-09-12T11:54:42;8.00;;;4.25;;
65202;SDS011;51788;45.124;38.966;2023-09-12T11:57:09;36.53;;;4.70;;
65202;SDS011;51788;45.124;38.966;2023-09-12T11:59:40;7.55;;;5.20;;
65202;SDS011;51788;45.124;38.966;2023-09-12T12:02:10;10.82;;;5.10;;
65202;SDS011;51788;45.124;38.966;2023-09-12T12:04:37;19.10;;;4.50;;
65202;SDS011;51788;45.124;38.966;2023-09-12T12:07:04;8.95;;;4.75;;
65202;SDS011;51788;45.124;38.966;2023-09-12T12:09:30;4.20;;;3.65;;
65202;SDS011;51788;45.124;38.966;2023-09-12T12:11:56;9.68;;;4.85;;
65202;SDS011;51788;45.124;38.966;2023-09-12T12:14:28;5.72;;;4.60;;
65202;SDS011;51788;45.124;38.966;2023-09-12T12:17:04;5.63;;;3.90;;
65202;SDS011;51788;45.124;38.966;2023-09-12T12:19:33;7.32;;;4.10;;
65202;SDS011;51788;45.124;38.966;2023-09-12T12:21:59;5.68;;;4.05;;
65202;SDS011;51788;45.124;38.966;2023-09-12T12:24:25;8.98;;;3.65;;
65202;SDS011;51788;45.124;38.966;2023-09-12T12:26:50;4.10;;;3.63;;
65202;SDS011;51788;45.124;38.966;2023-09-12T12:29:18;4.40;;;3.35;;
65202;SDS011;51788;45.124;38.966;2023-09-12T12:31:44;5.78;;;2.88;;
65202;SDS011;51788;45.124;38.966;2023-09-12T12:34:10;9.45;;;3.88;;
65202;SDS011;51788;45.124;38.966;2023-09-12T12:36:42;3.50;;;3.20;;
65202;SDS011;51788;45.124;38.966;2023-09-12T12:41:35;4.22;;;3.70;;
65202;SDS011;51788;45.124;38.966;2023-09-12T12:44:01;6.78;;;4.93;;
65202;SDS011;51788;45.124;38.966;2023-09-12T12:46:28;4.43;;;3.92;;
65202;SDS011;51788;45.124;38.966;2023-09-12T12:48:54;7.05;;;3.72;;
65202;SDS011;51788;45.124;38.966;2023-09-12T12:51:22;4.82;;;3.90;;
65202;SDS011;51788;45.124;38.966;2023-09-12T12:53:53;3.97;;;3.67;;
65202;SDS011;51788;45.124;38.966;2023-09-12T12:56:29;8.10;;;4.35;;
65202;SDS011;51788;45.124;38.966;2023-09-12T12:58:56;6.05;;;4.65;;
65202;SDS011;51788;45.124;38.966;2023-09-12T13:01:24;5.60;;;4.43;;
65202;SDS011;51788;45.124;38.966;2023-09-12T13:03:50;16.95;;;5.57;;
65202;SDS011;51788;45.124;38.966;2023-09-12T13:06:17;15.65;;;5.03;;
65202;SDS011;51788;45.124;38.966;2023-09-12T13:08:44;13.05;;;4.95;;
65202;SDS011;51788;45.124;38.966;2023-09-12T13:11:11;17.58;;;4.70;;
65202;SDS011;51788;45.124;38.966;2023-09-12T13:13:39;6.30;;;5.05;;
65202;SDS011;51788;45.124;38.966;2023-09-12T13:16:09;14.88;;;6.00;;
65202;SDS011;51788;45.124;38.966;2023-09-12T13:18:38;27.70;;;5.93;;
65202;SDS011;51788;45.124;38.966;2023-09-12T13:21:05;27.20;;;5.93;;
65202;SDS011;51788;45.124;38.966;2023-09-12T13:23:35;19.05;;;5.35;;
65202;SDS011;51788;45.124;38.966;2023-09-12T13:26:03;7.43;;;4.70;;
65202;SDS011;51788;45.124;38.966;2023-09-12T13:28:29;15.18;;;4.72;;
65202;SDS011;51788;45.124;38.966;2023-09-12T13:30:55;18.45;;;4.72;;
65202;SDS011;51788;45.124;38.966;2023-09-12T13:33:23;4.30;;;3.90;;
65202;SDS011;51788;45.124;38.966;2023-09-12T13:35:49;7.70;;;4.20;;
65202;SDS011;51788;45.124;38.966;2023-09-12T13:38:16;6.68;;;3.72;;
65202;SDS011;51788;45.124;38.966;2023-09-12T13:40:44;4.43;;;3.88;;
65202;SDS011;51788;45.124;38.966;2023-09-12T13:43:11;6.55;;;4.88;;
65202;SDS011;51788;45.124;38.966;2023-09-12T13:45:38;14.30;;;6.30;;
65202;SDS011;51788;45.124;38.966;2023-09-12T13:48:04;11.43;;;4.30;;
65202;SDS011;51788;45.124;38.966;2023-09-12T13:50:31;7.75;;;4.30;;
65202;SDS011;51788;45.124;38.966;2023-09-12T13:52:58;8.75;;;4.72;;
65202;SDS011;51788;45.124;38.966;2023-09-12T13:55:25;14.05;;;3.80;;
65202;SDS011;51788;45.124;38.966;2023-09-12T13:57:51;5.95;;;4.30;;
65202;SDS011;51788;45.124;38.966;2023-09-12T14:00:17;7.63;;;4.32;;
65202;SDS011;51788;45.124;38.966;2023-09-12T14:02:43;10.02;;;3.97;;
65202;SDS011;51788;45.124;38.966;2023-09-12T14:05:17;4.50;;;4.15;;
65202;SDS011;51788;45.124;38.966;2023-09-12T14:07:43;6.15;;;4.30;;
65202;SDS011;51788;45.124;38.966;2023-09-12T14:10:09;12.85;;;4.30;;
65202;SDS011;51788;45.124;38.966;2023-09-12T14:12:35;13.77;;;4.13;;
65202;SDS011;51788;45.124;38.966;2023-09-12T14:15:01;5.63;;;4.60;;
65202;SDS011;51788;45.124;38.966;2023-09-12T14:17:28;15.10;;;4.07;;
65202;SDS011;51788;45.124;38.966;2023-09-12T14:19:55;4.03;;;3.67;;
65202;SDS011;51788;45.124;38.966;2023-09-12T14:22:20;10.43;;;5.47;;
65202;SDS011;51788;45.124;38.966;2023-09-12T14:24:47;10.00;;;3.88;;
65202;SDS011;51788;45.124;38.966;2023-09-12T14:27:13;11.02;;;4.60;;
65202;SDS011;51788;45.124;38.966;2023-09-12T14:29:39;20.90;;;4.88;;
65202;SDS011;51788;45.124;38.966;2023-09-12T14:32:05;21.58;;;6.43;;
65202;SDS011;51788;45.124;38.966;2023-09-12T14:34:40;14.27;;;4.20;;
65202;SDS011;51788;45.124;38.966;2023-09-12T14:37:05;18.17;;;5.28;;
65202;SDS011;51788;45.124;38.966;2023-09-12T14:39:32;15.07;;;4.47;;
65202;SDS011;51788;45.124;38.966;2023-09-12T14:41:57;14.50;;;5.60;;
65202;SDS011;51788;45.124;38.966;2023-09-12T14:44:24;14.70;;;5.43;;
65202;SDS011;51788;45.124;38.966;2023-09-12T14:46:50;7.63;;;5.10;;
65202;SDS011;51788;45.124;38.966;2023-09-12T14:49:16;13.13;;;4.95;;
65202;SDS011;51788;45.124;38.966;2023-09-12T14:51:42;25.48;;;5.05;;